sensor_id;sensor_type;location;lat;lon;timestamp;temperature;humidity
6244;DHT22;3155;49.940;8.450;2023-05-16T00:00:54;11.30;99.90
6244;DHT22;3155;49.940;8.450;2023-05-16T00:03:23;11.20;99.90
6244;DHT22;3155;49.940;8.450;2023-05-16T00:05:53;11.10;99.90
6244;DHT22;3155;49.940;8.450;2023-05-16T00:08:21;11.00;1.00
6244;DHT22;3155;49.940;8.450;2023-05-16T00:10:48;11.00;1.00
6244;DHT22;3155;49.940;8.450;2023-05-16T00:13:15;11.00;1.00
6244;DHT22;3155;49.940;8.450;2023-05-16T00:15:47;11.00;1.00
6244;DHT22;3155;49.940;8.450;2023-05-16T00:18:15;11.10;1.00
6244;DHT22;3155;49.940;8.450;2023-05-16T00:20:42;11.10;1.00
6244;DHT22;3155;49.940;8.450;2023-05-16T00:23:09;11.10;1.00
6244;DHT22;3155;49.940;8.450;2023-05-16T00:25:40;11.00;1.00
6244;DHT22;3155;49.940;8.450;2023-05-16T00:28:07;11.00;1.00
6244;DHT22;3155;49.940;8.450;2023-05-16T00:30:34;11.00;1.00
6244;DHT22;3155;49.940;8.450;2023-05-16T00:33:01;11.00;1.00
6244;DHT22;3155;49.940;8.450;2023-05-16T00:35:28;11.10;1.00
6244;DHT22;3155;49.940;8.450;2023-05-16T00:37:54;11.20;1.00
6244;DHT22;3155;49.940;8.450;2023-05-16T00:40:21;11.20;1.00
6244;DHT22;3155;49.940;8.450;2023-05-16T00:42:48;11.30;1.00
6244;DHT22;3155;49.940;8.450;2023-05-16T00:45:15;11.30;1.00
6244;DHT22;3155;49.940;8.450;2023-05-16T00:47:42;11.30;1.00
6244;DHT22;3155;49.940;8.450;2023-05-16T00:50:09;11.40;1.00
6244;DHT22;3155;49.940;8.450;2023-05-16T00:52:36;11.40;1.00
6244;DHT22;3155;49.940;8.450;2023-05-16T00:55:06;11.40;1.00
6244;DHT22;3155;49.940;8.450;2023-05-16T00:57:33;11.40;1.00
6244;DHT22;3155;49.940;8.450;2023-05-16T01:00:00;11.40;1.00
6244;DHT22;3155;49.940;8.450;2023-05-16T01:02:27;11.40;1.00
6244;DHT22;3155;49.940;8.450;2023-05-16T01:04:54;11.50;1.00
6244;DHT22;3155;49.940;8.450;2023-05-16T01:07:22;11.50;1.00
6244;DHT22;3155;49.940;8.450;2023-05-16T01:09:49;11.60;1.00
6244;DHT22;3155;49.940;8.450;2023-05-16T01:15:11;11.60;99.90
6244;DHT22;3155;49.940;8.450;2023-05-16T01:25:21;11.50;99.90
6244;DHT22;3155;49.940;8.450;2023-05-16T01:27:52;11.50;1.00
6244;DHT22;3155;49.940;8.450;2023-05-16T01:30:20;11.50;1.00
6244;DHT22;3155;49.940;8.450;2023-05-16T01:32:47;11.50;99.90
6244;DHT22;3155;49.940;8.450;2023-05-16T01:35:16;11.50;99.90
6244;DHT22;3155;49.940;8.450;2023-05-16T01:37:51;11.40;99.90
6244;DHT22;3155;49.940;8.450;2023-05-16T01:40:34;11.40;99.90
6244;DHT22;3155;49.940;8.450;2023-05-16T01:43:10;11.40;99.90
6244;DHT22;3155;49.940;8.450;2023-05-16T01:45:50;11.30;99.90
6244;DHT22;3155;49.940;8.450;2023-05-16T01:48:21;11.30;1.00
6244;DHT22;3155;49.940;8.450;2023-05-16T01:50:54;11.20;1.00
6244;DHT22;3155;49.940;8.450;2023-05-16T01:53:26;11.10;1.00
6244;DHT22;3155;49.940;8.450;2023-05-16T01:55:56;11.10;1.00
6244;DHT22;3155;49.940;8.450;2023-05-16T01:58:26;11.00;1.00
6244;DHT22;3155;49.940;8.450;2023-05-16T02:01:02;11.00;1.00
6244;DHT22;3155;49.940;8.450;2023-05-16T02:03:30;10.90;1.00
6244;DHT22;3155;49.940;8.450;2023-05-16T02:05:57;10.90;1.00
6244;DHT22;3155;49.940;8.450;2023-05-16T02:08:25;10.80;1.00
6244;DHT22;3155;49.940;8.450;2023-05-16T02:10:53;10.80;1.00
6244;DHT22;3155;49.940;8.450;2023-05-16T02:13:20;10.80;1.00
6244;DHT22;3155;49.940;8.450;2023-05-16T02:15:46;10.70;1.00
6244;DHT22;3155;49.940;8.450;2023-05-16T02:18:13;10.70;1.00
6244;DHT22;3155;49.940;8.450;2023-05-16T02:20:40;10.60;1.00
6244;DHT22;3155;49.940;8.450;2023-05-16T02:23:07;10.70;1.00
6244;DHT22;3155;49.940;8.450;2023-05-16T02:25:33;10.70;1.00
6244;DHT22;3155;49.940;8.450;2023-05-16T02:28:00;10.70;1.00
6244;DHT22;3155;49.940;8.450;2023-05-16T02:30:30;10.80;1.00
6244;DHT22;3155;49.940;8.450;2023-05-16T02:32:57;10.80;1.00
6244;DHT22;3155;49.940;8.450;2023-05-16T02:35:23;10.80;1.00
6244;DHT22;3155;49.940;8.450;2023-05-16T02:37:51;10.80;1.00
6244;DHT22;3155;49.940;8.450;2023-05-16T02:40:18;10.80;1.00
6244;DHT22;3155;49.940;8.450;2023-05-16T02:42:44;10.80;1.00
6244;DHT22;3155;49.940;8.450;2023-05-16T02:45:11;10.90;1.00
6244;DHT22;3155;49.940;8.450;2023-05-16T02:47:38;11.00;1.00
6244;DHT22;3155;49.940;8.450;2023-05-16T02:50:05;10.90;1.00
6244;DHT22;3155;49.940;8.450;2023-05-16T02:52:32;10.90;1.00
6244;DHT22;3155;49.940;8.450;2023-05-16T02:54:58;10.80;1.00
6244;DHT22;3155;49.940;8.450;2023-05-16T02:57:45;10.80;1.00
6244;DHT22;3155;49.940;8.450;2023-05-16T03:00:12;10.70;1.00
6244;DHT22;3155;49.940;8.450;2023-05-16T03:02:44;10.80;1.00
6244;DHT22;3155;49.940;8.450;2023-05-16T03:05:11;10.80;1.00
6244;DHT22;3155;49.940;8.450;2023-05-16T03:07:37;10.80;1.00
6244;DHT22;3155;49.940;8.450;2023-05-16T03:10:05;10.90;1.00
6244;DHT22;3155;49.940;8.450;2023-05-16T03:12:32;11.00;1.00
6244;DHT22;3155;49.940;8.450;2023-05-16T03:14:59;11.00;1.00
6244;DHT22;3155;49.940;8.450;2023-05-16T03:17:29;11.00;99.90
6244;DHT22;3155;49.940;8.450;2023-05-16T03:19:56;11.00;99.90
6244;DHT22;3155;49.940;8.450;2023-05-16T03:22:22;11.00;99.90
6244;DHT22;3155;49.940;8.450;2023-05-16T03:24:49;11.00;99.90
6244;DHT22;3155;49.940;8.450;2023-05-16T03:27:16;11.00;99.90
6244;DHT22;3155;49.940;8.450;2023-05-16T03:29:43;11.10;99.90
6244;DHT22;3155;49.940;8.450;2023-05-16T03:32:10;11.10;99.90
6244;DHT22;3155;49.940;8.450;2023-05-16T03:34:37;11.10;99.90
6244;DHT22;3155;49.940;8.450;2023-05-16T03:37:04;11.20;99.90
6244;DHT22;3155;49.940;8.450;2023-05-16T03:39:31;11.20;99.90
6244;DHT22;3155;49.940;8.450;2023-05-16T03:41:58;11.30;99.90
6244;DHT22;3155;49.940;8.450;2023-05-16T03:44:24;11.40;99.90
6244;DHT22;3155;49.940;8.450;2023-05-16T03:46:51;11.40;99.90
6244;DHT22;3155;49.940;8.450;2023-05-16T03:49:22;11.50;99.90
6244;DHT22;3155;49.940;8.450;2023-05-16T03:51:49;11.50;1.00
6244;DHT22;3155;49.940;8.450;2023-05-16T03:54:16;11.60;1.00
6244;DHT22;3155;49.940;8.450;2023-05-16T03:56:42;11.60;1.00
6244;DHT22;3155;49.940;8.450;2023-05-16T03:59:09;11.60;99.90
6244;DHT22;3155;49.940;8.450;2023-05-16T04:01:36;11.70;99.90
6244;DHT22;3155;49.940;8.450;2023-05-16T04:04:03;11.70;99.90
6244;DHT22;3155;49.940;8.450;2023-05-16T04:06:30;11.70;99.90
6244;DHT22;3155;49.940;8.450;2023-05-16T04:08:57;11.70;99.90
6244;DHT22;3155;49.940;8.450;2023-05-16T04:11:24;11.80;1.00
6244;DHT22;3155;49.940;8.450;2023-05-16T04:13:52;11.70;1.00
6244;DHT22;3155;49.940;8.450;2023-05-16T04:16:19;11.70;1.00
6244;DHT22;3155;49.940;8.450;2023-05-16T04:18:46;11.60;1.00
6244;DHT22;3155;49.940;8.450;2023-05-16T04:21:13;11.60;1.00
6244;DHT22;3155;49.940;8.450;2023-05-16T04:23:42;11.60;33.50
6244;DHT22;3155;49.940;8.450;2023-05-16T04:26:09;11.70;4.70
6244;DHT22;3155;49.940;8.450;2023-05-16T04:28:35;11.70;1.00
6244;DHT22;3155;49.940;8.450;2023-05-16T04:31:02;11.80;99.90
6244;DHT22;3155;49.940;8.450;2023-05-16T04:33:29;11.80;99.90
6244;DHT22;3155;49.940;8.450;2023-05-16T04:35:56;11.90;37.20
6244;DHT22;3155;49.940;8.450;2023-05-16T04:38:24;11.90;1.00
6244;DHT22;3155;49.940;8.450;2023-05-16T04:40:51;11.90;1.00
6244;DHT22;3155;49.940;8.450;2023-05-16T04:43:19;11.90;1.00
6244;DHT22;3155;49.940;8.450;2023-05-16T04:45:49;11.90;1.00
6244;DHT22;3155;49.940;8.450;2023-05-16T04:48:16;11.90;1.00
6244;DHT22;3155;49.940;8.450;2023-05-16T04:50:42;11.90;1.00
6244;DHT22;3155;49.940;8.450;2023-05-16T04:53:09;12.00;99.90
6244;DHT22;3155;49.940;8.450;2023-05-16T04:55:36;12.00;99.90
6244;DHT22;3155;49.940;8.450;2023-05-16T04:58:03;12.10;93.50
6244;DHT22;3155;49.940;8.450;2023-05-16T05:00:30;12.20;1.00
6244;DHT22;3155;49.940;8.450;2023-05-16T05:02:56;12.30;99.90
6244;DHT22;3155;49.940;8.450;2023-05-16T05:05:23;12.30;99.90
6244;DHT22;3155;49.940;8.450;2023-05-16T05:07:50;12.40;7.30
6244;DHT22;3155;49.940;8.450;2023-05-16T05:10:17;12.50;1.00
6244;DHT22;3155;49.940;8.450;2023-05-16T05:12:43;12.60;99.90
6244;DHT22;3155;49.940;8.450;2023-05-16T05:15:10;12.70;89.90
6244;DHT22;3155;49.940;8.450;2023-05-16T05:17:37;12.80;1.00
6244;DHT22;3155;49.940;8.450;2023-05-16T05:20:04;12.80;1.00
6244;DHT22;3155;49.940;8.450;2023-05-16T05:22:34;12.80;99.90
6244;DHT22;3155;49.940;8.450;2023-05-16T05:25:01;12.80;99.90
6244;DHT22;3155;49.940;8.450;2023-05-16T05:27:28;12.80;99.90
6244;DHT22;3155;49.940;8.450;2023-05-16T05:29:57;12.80;99.90
6244;DHT22;3155;49.940;8.450;2023-05-16T05:32:24;12.80;99.90
6244;DHT22;3155;49.940;8.450;2023-05-16T05:34:51;12.90;7.60
6244;DHT22;3155;49.940;8.450;2023-05-16T05:37:18;12.90;1.00
6244;DHT22;3155;49.940;8.450;2023-05-16T05:39:45;13.00;4.70
6244;DHT22;3155;49.940;8.450;2023-05-16T05:42:12;13.00;1.00
6244;DHT22;3155;49.940;8.450;2023-05-16T05:44:39;13.00;99.90
6244;DHT22;3155;49.940;8.450;2023-05-16T05:47:06;12.90;1.00
6244;DHT22;3155;49.940;8.450;2023-05-16T05:49:33;13.00;1.00
6244;DHT22;3155;49.940;8.450;2023-05-16T05:52:00;13.00;99.90
6244;DHT22;3155;49.940;8.450;2023-05-16T05:54:30;13.00;99.90
6244;DHT22;3155;49.940;8.450;2023-05-16T05:56:59;12.90;99.90
6244;DHT22;3155;49.940;8.450;2023-05-16T05:59:26;12.70;99.90
6244;DHT22;3155;49.940;8.450;2023-05-16T06:01:53;12.60;1.00
6244;DHT22;3155;49.940;8.450;2023-05-16T06:04:20;12.50;16.10
6244;DHT22;3155;49.940;8.450;2023-05-16T06:06:47;12.50;99.90
6244;DHT22;3155;49.940;8.450;2023-05-16T06:09:14;12.50;99.90
6244;DHT22;3155;49.940;8.450;2023-05-16T06:11:43;12.40;99.90
6244;DHT22;3155;49.940;8.450;2023-05-16T06:14:12;12.50;99.90
6244;DHT22;3155;49.940;8.450;2023-05-16T06:16:39;12.50;26.30
6244;DHT22;3155;49.940;8.450;2023-05-16T06:19:06;12.60;1.00
6244;DHT22;3155;49.940;8.450;2023-05-16T06:21:33;12.60;1.00
6244;DHT22;3155;49.940;8.450;2023-05-16T06:24:00;12.70;99.90
6244;DHT22;3155;49.940;8.450;2023-05-16T06:26:26;12.60;99.90
6244;DHT22;3155;49.940;8.450;2023-05-16T06:28:53;12.60;99.90
6244;DHT22;3155;49.940;8.450;2023-05-16T06:31:20;12.50;16.90
6244;DHT22;3155;49.940;8.450;2023-05-16T06:33:47;12.40;68.60
6244;DHT22;3155;49.940;8.450;2023-05-16T06:36:13;12.20;86.50
6244;DHT22;3155;49.940;8.450;2023-05-16T06:38:40;12.10;99.90
6244;DHT22;3155;49.940;8.450;2023-05-16T06:41:06;12.10;99.90
6244;DHT22;3155;49.940;8.450;2023-05-16T06:43:33;12.00;99.90
6244;DHT22;3155;49.940;8.450;2023-05-16T06:46:00;12.00;99.90
6244;DHT22;3155;49.940;8.450;2023-05-16T06:48:27;11.90;67.30
6244;DHT22;3155;49.940;8.450;2023-05-16T06:50:54;11.80;99.90
6244;DHT22;3155;49.940;8.450;2023-05-16T06:53:21;11.80;99.90
6244;DHT22;3155;49.940;8.450;2023-05-16T06:55:47;11.70;99.90
6244;DHT22;3155;49.940;8.450;2023-05-16T06:58:17;11.70;99.90
6244;DHT22;3155;49.940;8.450;2023-05-16T07:00:44;11.70;99.90
6244;DHT22;3155;49.940;8.450;2023-05-16T07:03:12;11.70;99.90
6244;DHT22;3155;49.940;8.450;2023-05-16T07:05:39;11.80;99.90
6244;DHT22;3155;49.940;8.450;2023-05-16T07:08:08;11.80;99.90
6244;DHT22;3155;49.940;8.450;2023-05-16T07:10:38;11.80;99.90
6244;DHT22;3155;49.940;8.450;2023-05-16T07:13:07;11.80;99.90
6244;DHT22;3155;49.940;8.450;2023-05-16T07:15:40;11.80;99.90
6244;DHT22;3155;49.940;8.450;2023-05-16T07:18:07;11.80;1.00
6244;DHT22;3155;49.940;8.450;2023-05-16T07:20:33;11.70;99.90
6244;DHT22;3155;49.940;8.450;2023-05-16T07:23:00;11.70;99.90
6244;DHT22;3155;49.940;8.450;2023-05-16T07:25:30;11.60;99.90
6244;DHT22;3155;49.940;8.450;2023-05-16T07:27:57;11.50;1.00
6244;DHT22;3155;49.940;8.450;2023-05-16T07:30:25;11.50;1.00
6244;DHT22;3155;49.940;8.450;2023-05-16T07:32:51;11.40;4.50
6244;DHT22;3155;49.940;8.450;2023-05-16T07:35:18;11.40;99.90
6244;DHT22;3155;49.940;8.450;2023-05-16T07:37:45;11.40;99.90
6244;DHT22;3155;49.940;8.450;2023-05-16T07:40:12;11.40;99.90
6244;DHT22;3155;49.940;8.450;2023-05-16T07:42:50;11.50;99.90
6244;DHT22;3155;49.940;8.450;2023-05-16T07:45:41;11.50;1.00
6244;DHT22;3155;49.940;8.450;2023-05-16T07:48:08;11.60;1.00
6244;DHT22;3155;49.940;8.450;2023-05-16T07:50:35;11.60;1.00
6244;DHT22;3155;49.940;8.450;2023-05-16T07:53:02;11.60;1.00
6244;DHT22;3155;49.940;8.450;2023-05-16T07:55:29;11.70;99.90
6244;DHT22;3155;49.940;8.450;2023-05-16T07:57:59;11.70;46.90
6244;DHT22;3155;49.940;8.450;2023-05-16T08:00:28;11.70;1.00
6244;DHT22;3155;49.940;8.450;2023-05-16T08:02:56;11.60;1.00
6244;DHT22;3155;49.940;8.450;2023-05-16T08:05:23;11.50;23.10
6244;DHT22;3155;49.940;8.450;2023-05-16T08:07:50;11.50;1.00
6244;DHT22;3155;49.940;8.450;2023-05-16T08:10:17;11.50;1.00
6244;DHT22;3155;49.940;8.450;2023-05-16T08:12:46;11.40;99.90
6244;DHT22;3155;49.940;8.450;2023-05-16T08:15:14;11.40;99.90
6244;DHT22;3155;49.940;8.450;2023-05-16T08:17:40;11.40;99.90
6244;DHT22;3155;49.940;8.450;2023-05-16T08:20:08;11.50;1.00
6244;DHT22;3155;49.940;8.450;2023-05-16T08:22:34;11.40;1.00
6244;DHT22;3155;49.940;8.450;2023-05-16T08:25:01;11.40;1.00
6244;DHT22;3155;49.940;8.450;2023-05-16T08:27:28;11.30;1.00
6244;DHT22;3155;49.940;8.450;2023-05-16T08:29:55;11.30;1.00
6244;DHT22;3155;49.940;8.450;2023-05-16T08:32:22;11.40;1.00
6244;DHT22;3155;49.940;8.450;2023-05-16T08:34:51;11.50;1.00
6244;DHT22;3155;49.940;8.450;2023-05-16T08:37:17;11.60;1.00
6244;DHT22;3155;49.940;8.450;2023-05-16T08:39:44;11.50;1.00
6244;DHT22;3155;49.940;8.450;2023-05-16T08:42:14;11.40;1.00
6244;DHT22;3155;49.940;8.450;2023-05-16T08:44:44;11.40;1.00
6244;DHT22;3155;49.940;8.450;2023-05-16T08:47:18;11.40;1.00
6244;DHT22;3155;49.940;8.450;2023-05-16T08:49:47;11.40;1.00
6244;DHT22;3155;49.940;8.450;2023-05-16T08:52:20;11.50;99.90
6244;DHT22;3155;49.940;8.450;2023-05-16T08:54:53;11.50;1.00
6244;DHT22;3155;49.940;8.450;2023-05-16T08:57:36;11.60;1.00
6244;DHT22;3155;49.940;8.450;2023-05-16T09:00:06;11.80;99.90
6244;DHT22;3155;49.940;8.450;2023-05-16T09:02:39;11.90;99.90
6244;DHT22;3155;49.940;8.450;2023-05-16T09:05:26;12.00;99.90
6244;DHT22;3155;49.940;8.450;2023-05-16T09:07:53;12.30;99.90
6244;DHT22;3155;49.940;8.450;2023-05-16T09:10:20;12.40;99.90
6244;DHT22;3155;49.940;8.450;2023-05-16T09:12:47;12.40;99.90
6244;DHT22;3155;49.940;8.450;2023-05-16T09:15:16;12.60;99.90
6244;DHT22;3155;49.940;8.450;2023-05-16T09:17:45;12.80;99.90
6244;DHT22;3155;49.940;8.450;2023-05-16T09:20:15;13.00;99.90
6244;DHT22;3155;49.940;8.450;2023-05-16T09:22:52;13.20;99.90
6244;DHT22;3155;49.940;8.450;2023-05-16T09:25:20;13.40;99.90
6244;DHT22;3155;49.940;8.450;2023-05-16T09:28:01;13.40;99.90
6244;DHT22;3155;49.940;8.450;2023-05-16T09:30:31;13.40;99.90
6244;DHT22;3155;49.940;8.450;2023-05-16T09:32:59;13.70;99.90
6244;DHT22;3155;49.940;8.450;2023-05-16T09:35:32;13.70;99.90
6244;DHT22;3155;49.940;8.450;2023-05-16T09:38:01;13.50;99.90
6244;DHT22;3155;49.940;8.450;2023-05-16T09:40:28;13.30;99.90
6244;DHT22;3155;49.940;8.450;2023-05-16T09:43:02;13.20;99.90
6244;DHT22;3155;49.940;8.450;2023-05-16T09:45:36;13.00;99.90
6244;DHT22;3155;49.940;8.450;2023-05-16T09:48:04;12.90;99.90
6244;DHT22;3155;49.940;8.450;2023-05-16T09:50:33;13.00;99.90
6244;DHT22;3155;49.940;8.450;2023-05-16T09:53:01;12.90;99.90
6244;DHT22;3155;49.940;8.450;2023-05-16T09:55:29;12.90;99.90
6244;DHT22;3155;49.940;8.450;2023-05-16T09:57:56;13.10;99.90
6244;DHT22;3155;49.940;8.450;2023-05-16T10:00:29;13.60;99.90
6244;DHT22;3155;49.940;8.450;2023-05-16T10:02:57;14.10;99.90
6244;DHT22;3155;49.940;8.450;2023-05-16T10:05:29;14.20;99.90
6244;DHT22;3155;49.940;8.450;2023-05-16T10:07:57;14.50;99.90
6244;DHT22;3155;49.940;8.450;2023-05-16T10:10:24;14.80;99.90
6244;DHT22;3155;49.940;8.450;2023-05-16T10:12:57;15.00;99.90
6244;DHT22;3155;49.940;8.450;2023-05-16T10:15:27;14.60;99.90
6244;DHT22;3155;49.940;8.450;2023-05-16T10:17:55;14.30;99.90
6244;DHT22;3155;49.940;8.450;2023-05-16T10:20:28;13.90;99.90
6244;DHT22;3155;49.940;8.450;2023-05-16T10:22:57;13.40;99.90
6244;DHT22;3155;49.940;8.450;2023-05-16T10:25:33;12.90;99.90
6244;DHT22;3155;49.940;8.450;2023-05-16T10:28:05;12.80;99.90
6244;DHT22;3155;49.940;8.450;2023-05-16T10:30:33;12.70;99.90
6244;DHT22;3155;49.940;8.450;2023-05-16T10:33:01;13.00;99.90
6244;DHT22;3155;49.940;8.450;2023-05-16T10:35:33;13.50;99.90
6244;DHT22;3155;49.940;8.450;2023-05-16T10:38:00;13.80;99.90
6244;DHT22;3155;49.940;8.450;2023-05-16T10:40:28;13.90;99.90
6244;DHT22;3155;49.940;8.450;2023-05-16T10:42:59;13.80;99.90
6244;DHT22;3155;49.940;8.450;2023-05-16T10:45:27;14.00;99.90
6244;DHT22;3155;49.940;8.450;2023-05-16T10:48:04;14.10;99.90
6244;DHT22;3155;49.940;8.450;2023-05-16T10:50:40;13.90;99.90
6244;DHT22;3155;49.940;8.450;2023-05-16T10:53:21;13.80;99.90
6244;DHT22;3155;49.940;8.450;2023-05-16T10:55:49;13.90;99.90
6244;DHT22;3155;49.940;8.450;2023-05-16T11:04:03;14.50;99.90
6244;DHT22;3155;49.940;8.450;2023-05-16T11:09:05;14.50;99.90
6244;DHT22;3155;49.940;8.450;2023-05-16T11:12:01;14.70;99.90
6244;DHT22;3155;49.940;8.450;2023-05-16T11:17:14;14.90;99.90
6244;DHT22;3155;49.940;8.450;2023-05-16T11:19:50;14.90;99.90
6244;DHT22;3155;49.940;8.450;2023-05-16T11:22:34;14.80;99.90
6244;DHT22;3155;49.940;8.450;2023-05-16T11:25:07;15.10;99.90
6244;DHT22;3155;49.940;8.450;2023-05-16T11:27:45;14.90;99.90
6244;DHT22;3155;49.940;8.450;2023-05-16T11:30:16;14.90;99.90
6244;DHT22;3155;49.940;8.450;2023-05-16T11:32:45;14.90;99.90
6244;DHT22;3155;49.940;8.450;2023-05-16T11:35:16;15.10;99.90
6244;DHT22;3155;49.940;8.450;2023-05-16T11:37:44;15.20;99.90
6244;DHT22;3155;49.940;8.450;2023-05-16T11:40:12;15.40;99.90
6244;DHT22;3155;49.940;8.450;2023-05-16T11:42:50;15.40;99.90
6244;DHT22;3155;49.940;8.450;2023-05-16T11:45:19;15.30;99.90
6244;DHT22;3155;49.940;8.450;2023-05-16T11:47:48;15.30;99.90
6244;DHT22;3155;49.940;8.450;2023-05-16T11:50:19;15.10;99.90
6244;DHT22;3155;49.940;8.450;2023-05-16T11:52:49;15.10;99.90
6244;DHT22;3155;49.940;8.450;2023-05-16T11:55:21;15.50;99.90
6244;DHT22;3155;49.940;8.450;2023-05-16T11:58:06;15.80;99.90
6244;DHT22;3155;49.940;8.450;2023-05-16T12:00:33;15.90;99.90
6244;DHT22;3155;49.940;8.450;2023-05-16T12:03:02;16.00;99.90
6244;DHT22;3155;49.940;8.450;2023-05-16T12:05:31;15.70;99.90
6244;DHT22;3155;49.940;8.450;2023-05-16T12:08:01;15.90;99.90
6244;DHT22;3155;49.940;8.450;2023-05-16T12:10:30;16.30;99.90
6244;DHT22;3155;49.940;8.450;2023-05-16T12:12:59;16.50;99.90
6244;DHT22;3155;49.940;8.450;2023-05-16T12:15:26;16.80;99.90
6244;DHT22;3155;49.940;8.450;2023-05-16T12:18:01;17.20;99.90
6244;DHT22;3155;49.940;8.450;2023-05-16T12:20:28;17.70;99.90
6244;DHT22;3155;49.940;8.450;2023-05-16T12:22:56;18.20;99.90
6244;DHT22;3155;49.940;8.450;2023-05-16T12:25:27;18.10;99.90
6244;DHT22;3155;49.940;8.450;2023-05-16T12:27:57;18.30;99.90
6244;DHT22;3155;49.940;8.450;2023-05-16T12:30:30;18.00;99.90
6244;DHT22;3155;49.940;8.450;2023-05-16T12:32:59;18.30;99.90
6244;DHT22;3155;49.940;8.450;2023-05-16T12:35:31;18.70;99.90
6244;DHT22;3155;49.940;8.450;2023-05-16T12:37:59;19.60;99.90
6244;DHT22;3155;49.940;8.450;2023-05-16T12:40:29;20.50;99.90
6244;DHT22;3155;49.940;8.450;2023-05-16T12:42:56;20.80;99.90
6244;DHT22;3155;49.940;8.450;2023-05-16T12:45:26;20.90;99.90
6244;DHT22;3155;49.940;8.450;2023-05-16T12:47:53;20.50;99.90
6244;DHT22;3155;49.940;8.450;2023-05-16T12:50:20;19.90;99.90
6244;DHT22;3155;49.940;8.450;2023-05-16T12:52:51;19.60;99.90
6244;DHT22;3155;49.940;8.450;2023-05-16T12:55:20;19.30;99.90
6244;DHT22;3155;49.940;8.450;2023-05-16T12:57:48;18.50;99.90
6244;DHT22;3155;49.940;8.450;2023-05-16T13:00:17;18.20;99.90
6244;DHT22;3155;49.940;8.450;2023-05-16T13:02:45;18.30;99.90
6244;DHT22;3155;49.940;8.450;2023-05-16T13:05:13;18.30;99.90
6244;DHT22;3155;49.940;8.450;2023-05-16T13:07:40;18.40;99.90
6244;DHT22;3155;49.940;8.450;2023-05-16T13:10:08;18.30;99.90
6244;DHT22;3155;49.940;8.450;2023-05-16T13:12:39;17.90;99.90
6244;DHT22;3155;49.940;8.450;2023-05-16T13:15:08;17.60;99.90
6244;DHT22;3155;49.940;8.450;2023-05-16T13:17:36;17.30;99.90
6244;DHT22;3155;49.940;8.450;2023-05-16T13:20:06;17.30;99.90
6244;DHT22;3155;49.940;8.450;2023-05-16T13:22:41;18.40;99.90
6244;DHT22;3155;49.940;8.450;2023-05-16T13:25:09;18.80;99.90
6244;DHT22;3155;49.940;8.450;2023-05-16T13:27:36;19.00;99.90
6244;DHT22;3155;49.940;8.450;2023-05-16T13:30:03;20.10;99.90
6244;DHT22;3155;49.940;8.450;2023-05-16T13:32:30;20.60;99.90
6244;DHT22;3155;49.940;8.450;2023-05-16T13:34:57;20.00;99.90
6244;DHT22;3155;49.940;8.450;2023-05-16T13:37:24;19.30;99.90
6244;DHT22;3155;49.940;8.450;2023-05-16T13:39:51;18.40;99.90
6244;DHT22;3155;49.940;8.450;2023-05-16T13:42:20;18.20;99.90
6244;DHT22;3155;49.940;8.450;2023-05-16T13:44:47;18.80;99.90
6244;DHT22;3155;49.940;8.450;2023-05-16T13:47:14;20.10;99.90
6244;DHT22;3155;49.940;8.450;2023-05-16T13:49:44;21.20;99.90
6244;DHT22;3155;49.940;8.450;2023-05-16T13:52:13;21.60;99.90
6244;DHT22;3155;49.940;8.450;2023-05-16T13:54:40;22.30;99.90
6244;DHT22;3155;49.940;8.450;2023-05-16T13:57:07;22.20;99.90
6244;DHT22;3155;49.940;8.450;2023-05-16T13:59:34;22.00;99.90
6244;DHT22;3155;49.940;8.450;2023-05-16T14:02:21;20.70;99.90
6244;DHT22;3155;49.940;8.450;2023-05-16T14:04:50;20.20;99.90
6244;DHT22;3155;49.940;8.450;2023-05-16T14:07:17;19.90;99.90
6244;DHT22;3155;49.940;8.450;2023-05-16T14:09:46;19.00;99.90
6244;DHT22;3155;49.940;8.450;2023-05-16T14:12:13;18.10;99.90
6244;DHT22;3155;49.940;8.450;2023-05-16T14:14:40;17.90;99.90
6244;DHT22;3155;49.940;8.450;2023-05-16T14:17:07;17.60;99.90
6244;DHT22;3155;49.940;8.450;2023-05-16T14:19:33;17.20;99.90
6244;DHT22;3155;49.940;8.450;2023-05-16T14:22:01;16.90;99.90
6244;DHT22;3155;49.940;8.450;2023-05-16T14:24:27;16.90;99.90
6244;DHT22;3155;49.940;8.450;2023-05-16T14:26:54;16.80;99.90
6244;DHT22;3155;49.940;8.450;2023-05-16T14:29:21;16.80;99.90
6244;DHT22;3155;49.940;8.450;2023-05-16T14:31:51;16.70;99.90
6244;DHT22;3155;49.940;8.450;2023-05-16T14:34:18;17.30;99.90
6244;DHT22;3155;49.940;8.450;2023-05-16T14:36:45;19.10;99.90
6244;DHT22;3155;49.940;8.450;2023-05-16T14:39:12;19.10;99.90
6244;DHT22;3155;49.940;8.450;2023-05-16T14:41:39;18.60;99.90
6244;DHT22;3155;49.940;8.450;2023-05-16T14:44:06;18.00;99.90
6244;DHT22;3155;49.940;8.450;2023-05-16T14:46:33;17.60;99.90
6244;DHT22;3155;49.940;8.450;2023-05-16T14:49:00;18.00;99.90
6244;DHT22;3155;49.940;8.450;2023-05-16T14:51:27;18.40;99.90
6244;DHT22;3155;49.940;8.450;2023-05-16T14:53:54;18.90;99.90
6244;DHT22;3155;49.940;8.450;2023-05-16T14:56:21;19.80;99.90
6244;DHT22;3155;49.940;8.450;2023-05-16T14:58:48;21.40;99.90
6244;DHT22;3155;49.940;8.450;2023-05-16T15:01:15;20.70;99.90
6244;DHT22;3155;49.940;8.450;2023-05-16T15:03:42;19.70;99.90
6244;DHT22;3155;49.940;8.450;2023-05-16T15:06:21;19.40;99.90
6244;DHT22;3155;49.940;8.450;2023-05-16T15:08:48;19.10;99.90
6244;DHT22;3155;49.940;8.450;2023-05-16T15:11:15;19.10;99.90
6244;DHT22;3155;49.940;8.450;2023-05-16T15:13:41;19.00;99.90
6244;DHT22;3155;49.940;8.450;2023-05-16T15:16:08;19.30;99.90
6244;DHT22;3155;49.940;8.450;2023-05-16T15:18:35;19.10;99.90
6244;DHT22;3155;49.940;8.450;2023-05-16T15:21:02;18.50;99.90
6244;DHT22;3155;49.940;8.450;2023-05-16T15:23:29;18.10;99.90
6244;DHT22;3155;49.940;8.450;2023-05-16T15:25:55;17.50;99.90
6244;DHT22;3155;49.940;8.450;2023-05-16T15:28:22;16.90;99.90
6244;DHT22;3155;49.940;8.450;2023-05-16T15:30:50;16.20;99.90
6244;DHT22;3155;49.940;8.450;2023-05-16T15:33:17;15.80;99.90
6244;DHT22;3155;49.940;8.450;2023-05-16T15:35:46;16.60;99.90
6244;DHT22;3155;49.940;8.450;2023-05-16T15:38:13;18.40;99.90
6244;DHT22;3155;49.940;8.450;2023-05-16T15:40:40;18.90;99.90
6244;DHT22;3155;49.940;8.450;2023-05-16T15:43:10;17.80;99.90
6244;DHT22;3155;49.940;8.450;2023-05-16T15:45:37;16.80;99.90
6244;DHT22;3155;49.940;8.450;2023-05-16T15:48:06;16.20;99.90
6244;DHT22;3155;49.940;8.450;2023-05-16T15:50:33;16.00;99.90
6244;DHT22;3155;49.940;8.450;2023-05-16T15:53:02;15.80;99.90
6244;DHT22;3155;49.940;8.450;2023-05-16T15:55:29;15.80;99.90
6244;DHT22;3155;49.940;8.450;2023-05-16T15:57:57;16.00;99.90
6244;DHT22;3155;49.940;8.450;2023-05-16T16:00:25;16.20;99.90
6244;DHT22;3155;49.940;8.450;2023-05-16T16:02:52;16.40;99.90
6244;DHT22;3155;49.940;8.450;2023-05-16T16:05:19;16.50;99.90
6244;DHT22;3155;49.940;8.450;2023-05-16T16:07:46;16.50;99.90
6244;DHT22;3155;49.940;8.450;2023-05-16T16:10:12;16.30;99.90
6244;DHT22;3155;49.940;8.450;2023-05-16T16:12:39;16.00;99.90
6244;DHT22;3155;49.940;8.450;2023-05-16T16:15:08;15.70;99.90
6244;DHT22;3155;49.940;8.450;2023-05-16T16:17:37;15.50;99.90
6244;DHT22;3155;49.940;8.450;2023-05-16T16:20:04;15.40;99.90
6244;DHT22;3155;49.940;8.450;2023-05-16T16:22:31;15.20;99.90
6244;DHT22;3155;49.940;8.450;2023-05-16T16:24:58;15.10;99.90
6244;DHT22;3155;49.940;8.450;2023-05-16T16:27:26;15.20;99.90
6244;DHT22;3155;49.940;8.450;2023-05-16T16:29:52;15.10;99.90
6244;DHT22;3155;49.940;8.450;2023-05-16T16:32:19;15.00;99.90
6244;DHT22;3155;49.940;8.450;2023-05-16T16:34:46;14.90;99.90
6244;DHT22;3155;49.940;8.450;2023-05-16T16:37:13;14.70;99.90